createdAt,value
2018-11-06T00:01:36.004Z,47.89
2018-11-06T00:04:08.349Z,48.14
2018-11-06T00:06:40.578Z,48.25
2018-11-06T00:09:12.971Z,47.94
2018-11-06T00:11:45.133Z,47.63
2018-11-06T00:14:17.443Z,48.33
2018-11-06T00:16:49.468Z,47.80
2018-11-06T00:19:21.458Z,47.64
2018-11-06T00:21:54.283Z,48.45
2018-11-06T00:24:26.349Z,48.05
2018-11-06T00:26:58.404Z,47.93
2018-11-06T00:29:30.382Z,47.61
2018-11-06T00:32:02.927Z,48.41
2018-11-06T00:34:35.162Z,47.79
2018-11-06T00:37:07.505Z,48.14
2018-11-06T00:39:39.848Z,48.17
2018-11-06T00:42:12.041Z,47.54
2018-11-06T00:44:44.354Z,48.16
2018-11-06T00:47:16.610Z,48.34
2018-11-06T00:49:48.634Z,48.22
2018-11-06T00:52:21.279Z,47.89
2018-11-06T00:54:53.514Z,47.81
2018-11-06T00:57:25.468Z,47.89
2018-11-06T00:59:58.154Z,48.41
2018-11-06T01:02:30.407Z,48.52
2018-11-06T01:05:02.631Z,48.65
2018-11-06T01:07:34.908Z,48.87
2018-11-06T01:10:07.580Z,48.62
2018-11-06T01:12:40.145Z,48.48
2018-11-06T01:15:13.924Z,48.90
2018-11-06T01:17:46.590Z,48.50
2018-11-06T01:20:19.745Z,47.91
2018-11-06T01:22:52.470Z,48.18
2018-11-06T01:25:24.640Z,48.31
2018-11-06T01:27:56.760Z,48.40
2018-11-06T01:30:28.905Z,48.44
2018-11-06T01:33:02.459Z,48.41
2018-11-06T01:35:35.033Z,48.28
2018-11-06T01:38:07.512Z,48.75
2018-11-06T01:40:39.588Z,48.75
2018-11-06T01:43:11.707Z,48.48
2018-11-06T01:45:43.654Z,48.00
2018-11-06T01:48:15.528Z,48.54
2018-11-06T01:50:47.818Z,48.35
2018-11-06T01:53:20.342Z,48.79
2018-11-06T01:55:52.550Z,48.19
2018-11-06T01:58:24.761Z,48.30
2018-11-06T02:00:57.029Z,49.17
2018-11-06T02:03:29.137Z,48.81
2018-11-06T02:06:01.421Z,49.22
2018-11-06T02:08:33.264Z,49.17
2018-11-06T02:11:05.687Z,48.28
2018-11-06T02:13:37.842Z,48.25
2018-11-06T02:16:10.133Z,48.24
2018-11-06T02:18:42.594Z,48.57
2018-11-06T02:21:14.798Z,49.47
2018-11-06T02:23:47.213Z,49.34
2018-11-06T02:26:19.620Z,48.40
2018-11-06T02:28:51.748Z,48.91
2018-11-06T02:31:23.670Z,48.62
2018-11-06T02:33:56.157Z,47.40
2018-11-06T02:36:28.362Z,47.58
2018-11-06T02:39:00.483Z,47.85
2018-11-06T02:41:32.637Z,47.13
2018-11-06T02:44:04.520Z,48.17
2018-11-06T02:46:36.721Z,47.01
2018-11-06T02:49:08.727Z,47.85
2018-11-06T02:51:40.955Z,47.53
2018-11-06T02:54:13.632Z,48.26
2018-11-06T02:56:45.756Z,48.32
2018-11-06T02:59:17.812Z,48.26
2018-11-06T03:01:50.051Z,47.19
2018-11-06T03:04:21.933Z,47.40
2018-11-06T03:06:54.053Z,47.40
2018-11-06T03:09:26.413Z,47.22
2018-11-06T03:11:58.661Z,47.24
2018-11-06T03:14:30.722Z,47.04
2018-11-06T03:17:03.051Z,47.54
2018-11-06T03:19:35.239Z,46.73
2018-11-06T03:22:07.306Z,47.12
2018-11-06T03:24:39.786Z,47.74
2018-11-06T03:27:11.883Z,47.72
2018-11-06T03:29:45.241Z,47.35
2018-11-06T03:32:17.296Z,47.21
2018-11-06T03:34:49.395Z,47.59
2018-11-06T03:37:21.379Z,47.60
2018-11-06T03:39:53.460Z,47.21
2018-11-06T03:42:25.389Z,47.22
2018-11-06T03:44:57.578Z,46.67
2018-11-06T03:47:29.585Z,46.86
2018-11-06T03:50:02.144Z,47.42
2018-11-06T03:52:34.379Z,47.30
2018-11-06T03:55:06.957Z,47.52
2018-11-06T03:57:39.329Z,46.68
2018-11-06T04:00:15.942Z,46.73
2018-11-06T04:02:48.103Z,45.35
2018-11-06T04:05:20.330Z,46.25
2018-11-06T04:07:52.734Z,47.10
2018-11-06T04:10:24.710Z,46.99
2018-11-06T04:12:56.968Z,46.95
2018-11-06T04:15:28.849Z,45.58
2018-11-06T04:18:00.994Z,47.28
2018-11-06T04:20:33.116Z,45.38
2018-11-06T04:23:04.883Z,45.55
2018-11-06T04:25:37.549Z,44.54
2018-11-06T04:28:09.575Z,44.56
2018-11-06T04:30:42.007Z,44.19
2018-11-06T04:33:13.940Z,44.62
2018-11-06T04:35:46.195Z,43.14
2018-11-06T04:38:18.281Z,41.91
2018-11-06T04:40:50.302Z,41.07
2018-11-06T04:43:22.017Z,41.01
2018-11-06T04:45:53.875Z,41.25
2018-11-06T04:48:26.020Z,40.52
2018-11-06T04:50:58.083Z,41.54
2018-11-06T04:53:30.673Z,40.98
2018-11-06T04:56:03.526Z,42.38
2018-11-06T04:58:35.684Z,41.72
2018-11-06T05:03:47.969Z,42.32
2018-11-06T05:06:20.233Z,41.86
2018-11-06T05:08:52.348Z,42.05
2018-11-06T05:11:24.745Z,41.76
2018-11-06T05:13:57.083Z,40.33
2018-11-06T05:16:29.058Z,42.95
2018-11-06T05:19:01.366Z,48.49
2018-11-06T05:21:33.454Z,48.20
2018-11-06T05:24:05.773Z,46.43
2018-11-06T05:26:38.283Z,46.58
2018-11-06T05:29:10.347Z,45.73
2018-11-06T05:31:42.058Z,37.09
2018-11-06T05:34:14.561Z,36.61
2018-11-06T05:36:46.976Z,36.56
2018-11-06T05:39:19.124Z,35.04
2018-11-06T05:41:51.384Z,34.71
2018-11-06T05:44:23.445Z,34.39
2018-11-06T05:46:55.360Z,34.40
2018-11-06T05:49:27.608Z,34.85
2018-11-06T05:51:59.568Z,34.52
2018-11-06T05:54:31.464Z,34.29
2018-11-06T05:57:04.035Z,34.19
2018-11-06T05:59:36.295Z,34.02
2018-11-06T06:02:08.476Z,33.72
2018-11-06T06:04:40.935Z,33.62
2018-11-06T06:07:13.250Z,33.43
2018-11-06T06:09:45.651Z,33.27
2018-11-06T06:12:17.711Z,33.06
2018-11-06T06:14:50.021Z,33.68
2018-11-06T06:17:23.890Z,32.53
2018-11-06T06:19:58.316Z,33.13
2018-11-06T06:22:31.339Z,32.40
2018-11-06T06:25:04.176Z,32.78
2018-11-06T06:27:36.679Z,32.40
2018-11-06T06:30:11.320Z,32.07
2018-11-06T06:32:43.438Z,33.28
2018-11-06T06:35:15.617Z,32.93
2018-11-06T06:37:47.816Z,33.10
2018-11-06T06:40:20.174Z,32.50
2018-11-06T06:42:52.322Z,33.47
2018-11-06T06:45:24.615Z,33.42
2018-11-06T06:47:56.658Z,33.02
2018-11-06T06:50:29.044Z,33.33
2018-11-06T06:53:01.275Z,33.24
2018-11-06T06:55:33.411Z,33.23
2018-11-06T06:58:05.869Z,32.22
2018-11-06T07:00:38.091Z,32.73
2018-11-06T07:03:10.101Z,33.17
2018-11-06T07:05:42.338Z,32.91
2018-11-06T07:08:14.499Z,33.69
2018-11-06T07:10:46.756Z,32.86
2018-11-06T07:13:18.942Z,33.47
2018-11-06T07:15:51.232Z,33.79
2018-11-06T07:18:23.453Z,34.11
2018-11-06T07:20:55.497Z,33.13
2018-11-06T07:23:28.059Z,33.50
2018-11-06T07:26:00.226Z,32.90
2018-11-06T07:28:32.941Z,33.13
2018-11-06T07:31:05.107Z,33.68
2018-11-06T07:33:37.466Z,34.35
2018-11-06T07:36:09.593Z,32.67
2018-11-06T07:38:41.691Z,33.74
2018-11-06T07:41:13.688Z,32.61
2018-11-06T07:43:45.945Z,32.48
2018-11-06T07:46:17.979Z,32.56
2018-11-06T07:48:49.830Z,32.64
2018-11-06T07:51:22.018Z,32.41
2018-11-06T07:53:54.045Z,33.39
2018-11-06T07:56:26.028Z,32.49
2018-11-06T07:58:58.956Z,32.62
2018-11-06T08:01:31.062Z,32.08
2018-11-06T08:04:03.055Z,31.17
2018-11-06T08:06:35.270Z,31.09
2018-11-06T08:09:10.323Z,31.49
2018-11-06T08:11:42.373Z,30.21
2018-11-06T08:14:14.628Z,28.88
2018-11-06T08:16:46.662Z,28.84
2018-11-06T08:19:18.907Z,29.56
2018-11-06T08:21:50.807Z,30.66
2018-11-06T08:24:23.589Z,29.98
2018-11-06T08:26:55.339Z,31.13
2018-11-06T08:29:27.548Z,30.56
2018-11-06T08:32:00.427Z,30.17
2018-11-06T08:34:32.251Z,29.44
2018-11-06T08:37:04.319Z,28.63
2018-11-06T08:39:36.747Z,28.39
2018-11-06T08:42:08.860Z,29.10
2018-11-06T08:44:40.757Z,30.47
2018-11-06T08:47:13.028Z,30.18
2018-11-06T08:49:44.889Z,29.34
2018-11-06T08:52:16.834Z,27.89
2018-11-06T08:54:48.669Z,27.95
2018-11-06T08:57:20.900Z,29.45
2018-11-06T08:59:53.947Z,29.14
2018-11-06T09:02:26.234Z,29.86
2018-11-06T09:04:58.292Z,29.71
2018-11-06T09:07:30.430Z,29.09
2018-11-06T09:10:02.450Z,28.22
2018-11-06T09:12:34.588Z,27.92
2018-11-06T09:15:06.977Z,28.47
2018-11-06T09:17:39.797Z,27.75
2018-11-06T09:20:13.851Z,28.09
2018-11-06T09:22:45.980Z,27.03
2018-11-06T09:25:19.246Z,26.67
2018-11-06T09:27:51.394Z,27.56
2018-11-06T09:30:23.860Z,27.79
2018-11-06T09:32:55.928Z,28.32
2018-11-06T09:35:28.218Z,27.65
2018-11-06T09:38:00.219Z,28.02
2018-11-06T09:43:04.250Z,27.74
2018-11-06T09:45:36.357Z,27.92
2018-11-06T09:48:08.227Z,27.39
2018-11-06T09:50:40.895Z,26.80
2018-11-06T09:53:13.308Z,27.20
2018-11-06T09:55:45.337Z,28.15
2018-11-06T09:58:17.643Z,26.99
2018-11-06T10:00:50.355Z,26.91
2018-11-06T10:03:22.600Z,26.01
2018-11-06T10:05:54.955Z,25.88
2018-11-06T10:08:27.043Z,23.84
2018-11-06T10:10:59.111Z,23.61
2018-11-06T10:13:31.504Z,23.72
2018-11-06T10:16:03.623Z,23.43
2018-11-06T10:18:35.933Z,23.77
2018-11-06T10:21:08.335Z,24.13
2018-11-06T10:23:40.463Z,24.79
2018-11-06T10:26:12.688Z,25.29
2018-11-06T10:28:44.994Z,25.60
2018-11-06T10:31:17.774Z,25.55
2018-11-06T10:33:49.839Z,24.05
2018-11-06T10:36:22.025Z,24.71
2018-11-06T10:38:54.339Z,25.47
2018-11-06T10:41:26.469Z,26.02
2018-11-06T10:43:58.793Z,25.78
2018-11-06T10:46:30.682Z,26.50
2018-11-06T10:49:02.843Z,26.30
2018-11-06T10:51:36.475Z,26.95
2018-11-06T10:54:08.765Z,26.97
2018-11-06T10:56:40.600Z,27.45
2018-11-06T10:59:13.001Z,27.82
2018-11-06T11:01:50.077Z,26.76
2018-11-06T11:04:25.250Z,27.29
2018-11-06T11:06:57.133Z,28.12
2018-11-06T11:09:29.182Z,28.02
2018-11-06T11:12:01.378Z,28.02
2018-11-06T11:14:33.453Z,28.35
2018-11-06T11:17:05.498Z,27.85
2018-11-06T11:19:37.526Z,28.27
2018-11-06T11:22:09.609Z,27.71
2018-11-06T11:24:41.576Z,28.63
2018-11-06T11:27:13.704Z,28.22
2018-11-06T11:29:46.199Z,28.79
2018-11-06T11:32:18.831Z,28.75
2018-11-06T11:34:50.805Z,28.93
2018-11-06T11:37:23.117Z,28.41
2018-11-06T11:39:55.264Z,28.99
2018-11-06T11:42:27.663Z,29.74
2018-11-06T11:44:59.909Z,29.14
2018-11-06T11:47:32.070Z,29.78
2018-11-06T11:50:04.449Z,29.26
2018-11-06T11:52:37.017Z,29.60
2018-11-06T11:55:09.626Z,29.91
2018-11-06T11:57:41.927Z,29.58
2018-11-06T12:00:15.859Z,30.23
2018-11-06T12:02:48.172Z,29.36
2018-11-06T12:05:21.073Z,29.95
2018-11-06T12:07:53.220Z,30.37
2018-11-06T12:10:25.507Z,30.20
2018-11-06T12:12:57.567Z,30.51
2018-11-06T12:15:30.235Z,29.96
2018-11-06T12:18:02.355Z,30.30
2018-11-06T12:20:34.426Z,29.96
2018-11-06T12:23:06.838Z,30.20
2018-11-06T12:25:39.058Z,30.66
2018-11-06T12:28:11.053Z,31.79
2018-11-06T12:30:43.733Z,30.51
2018-11-06T12:33:16.548Z,30.96
2018-11-06T12:35:48.762Z,30.96
2018-11-06T12:38:20.730Z,34.23
2018-11-06T12:40:52.820Z,36.49
2018-11-06T12:43:24.801Z,37.61
2018-11-06T12:45:56.786Z,38.29
2018-11-06T12:48:28.847Z,38.51
2018-11-06T12:51:01.076Z,37.61
2018-11-06T12:53:33.061Z,36.35
2018-11-06T12:56:05.296Z,35.83
2018-11-06T12:58:37.336Z,35.03
2018-11-06T13:01:09.755Z,34.87
2018-11-06T13:03:42.570Z,35.03
2018-11-06T13:06:15.110Z,34.52
2018-11-06T13:08:52.337Z,35.02
2018-11-06T13:11:24.612Z,34.28
2018-11-06T13:13:56.395Z,34.49
2018-11-06T13:16:28.513Z,34.57
2018-11-06T13:19:00.382Z,34.31
2018-11-06T13:21:32.714Z,34.26
2018-11-06T13:24:04.392Z,34.17
2018-11-06T13:26:36.749Z,34.26
2018-11-06T13:29:09.165Z,34.32
2018-11-06T13:31:41.481Z,34.19
2018-11-06T13:34:13.938Z,33.90
2018-11-06T13:36:45.997Z,33.98
2018-11-06T13:39:17.928Z,33.72
2018-11-06T13:41:50.379Z,33.29
2018-11-06T13:44:22.486Z,34.00
2018-11-06T13:46:54.582Z,33.81
2018-11-06T13:49:27.189Z,33.67
2018-11-06T13:51:59.443Z,33.35
2018-11-06T13:54:31.330Z,34.09
2018-11-06T13:57:03.518Z,33.83
2018-11-06T13:59:35.528Z,34.58
2018-11-06T14:02:08.167Z,34.80
2018-11-06T14:04:42.188Z,34.69
2018-11-06T14:07:15.210Z,35.18
2018-11-06T14:09:47.854Z,35.02
2018-11-06T14:12:21.375Z,34.76
2018-11-06T14:14:54.838Z,34.81
2018-11-06T14:17:27.655Z,34.74
2018-11-06T14:20:00.589Z,34.74
2018-11-06T14:22:33.569Z,34.82
2018-11-06T14:25:07.281Z,35.72
2018-11-06T14:27:40.412Z,34.84
2018-11-06T14:30:19.481Z,34.70
2018-11-06T14:32:52.307Z,34.54
2018-11-06T14:35:25.569Z,34.15
2018-11-06T14:37:58.101Z,33.83
2018-11-06T14:40:31.522Z,34.12
2018-11-06T14:43:04.473Z,33.22
2018-11-06T14:45:37.204Z,33.71
2018-11-06T14:48:10.324Z,32.58
2018-11-06T14:50:42.912Z,32.90
2018-11-06T14:53:16.026Z,33.01
2018-11-06T14:55:48.613Z,32.43
2018-11-06T14:58:21.446Z,31.87
2018-11-06T15:00:54.309Z,33.05
2018-11-06T15:03:27.213Z,32.03
2018-11-06T15:06:00.840Z,31.76
2018-11-06T15:08:34.862Z,31.80
2018-11-06T15:11:07.443Z,31.58
2018-11-06T15:13:40.409Z,34.40
2018-11-06T15:16:13.308Z,33.80
2018-11-06T15:18:46.826Z,33.22
2018-11-06T15:21:19.467Z,32.20
2018-11-06T15:23:52.142Z,32.56
2018-11-06T15:26:24.541Z,31.59
2018-11-06T15:28:56.674Z,31.99
2018-11-06T15:31:28.834Z,31.05
2018-11-06T15:34:01.291Z,30.50
2018-11-06T15:36:34.218Z,30.31
2018-11-06T15:39:08.713Z,30.24
2018-11-06T15:41:41.961Z,31.16
2018-11-06T15:44:13.953Z,31.15
2018-11-06T15:46:46.095Z,31.06
2018-11-06T15:49:18.518Z,32.08
2018-11-06T15:51:50.684Z,31.86
2018-11-06T15:54:23.463Z,32.39
2018-11-06T15:56:55.242Z,31.60
2018-11-06T15:59:27.353Z,31.78
2018-11-06T16:01:59.497Z,31.67
2018-11-06T16:04:31.722Z,30.17
2018-11-06T16:07:04.351Z,30.79
2018-11-06T16:09:37.277Z,31.01
2018-11-06T16:12:09.628Z,31.20
2018-11-06T16:14:42.452Z,31.60
2018-11-06T16:17:15.551Z,31.85
2018-11-06T16:19:48.862Z,31.66
2018-11-06T16:22:21.944Z,31.68
2018-11-06T16:24:55.199Z,30.86
2018-11-06T16:27:28.538Z,31.58
2018-11-06T16:30:00.982Z,31.00
2018-11-06T16:32:33.257Z,31.27
2018-11-06T16:35:05.638Z,31.73
2018-11-06T16:37:38.139Z,30.64
2018-11-06T16:40:10.562Z,31.63
2018-11-06T16:42:43.270Z,30.39
2018-11-06T16:45:16.833Z,30.70
2018-11-06T16:47:49.886Z,31.26
2018-11-06T16:50:22.045Z,31.26
2018-11-06T16:52:54.093Z,30.97
2018-11-06T16:55:26.282Z,31.36
2018-11-06T16:57:58.257Z,32.21
2018-11-06T17:00:30.523Z,31.66
2018-11-06T17:03:02.862Z,31.20
2018-11-06T17:05:34.639Z,35.15
2018-11-06T17:08:07.171Z,35.81
2018-11-06T17:10:39.243Z,36.53
2018-11-06T17:13:11.033Z,38.06
2018-11-06T17:15:42.913Z,38.19
2018-11-06T17:18:15.083Z,37.95
2018-11-06T17:20:46.640Z,37.47
2018-11-06T17:23:18.707Z,38.22
2018-11-06T17:25:50.569Z,37.75
2018-11-06T17:28:23.051Z,38.64
2018-11-06T17:30:55.256Z,38.72
2018-11-06T17:33:27.541Z,38.88
2018-11-06T17:35:59.458Z,38.12
2018-11-06T17:38:32.313Z,37.38
2018-11-06T17:41:04.446Z,37.95
2018-11-06T17:43:36.634Z,38.82
2018-11-06T17:46:08.840Z,38.81
2018-11-06T17:48:40.923Z,38.74
2018-11-06T17:51:12.879Z,38.21
2018-11-06T17:53:44.959Z,38.35
2018-11-06T17:56:16.971Z,38.37
2018-11-06T17:58:49.091Z,38.52
2018-11-06T18:01:21.262Z,38.16
2018-11-06T18:03:53.276Z,37.96
2018-11-06T18:06:25.677Z,37.67
2018-11-06T18:08:58.337Z,38.21
2018-11-06T18:11:30.545Z,38.73
2018-11-06T18:14:02.421Z,38.40
2018-11-06T18:16:34.300Z,39.50
2018-11-06T18:19:06.230Z,39.32
2018-11-06T18:21:38.220Z,38.22
2018-11-06T18:24:10.385Z,38.09
2018-11-06T18:26:42.497Z,38.77
2018-11-06T18:29:14.467Z,38.26
2018-11-06T18:31:47.539Z,38.36
2018-11-06T18:34:19.576Z,37.87
2018-11-06T18:36:52.200Z,38.82
2018-11-06T18:39:25.104Z,38.26
2018-11-06T18:41:57.146Z,38.09
2018-11-06T18:44:29.355Z,38.03
2018-11-06T18:47:01.567Z,37.97
2018-11-06T18:49:33.573Z,38.22
2018-11-06T18:52:05.732Z,38.12
2018-11-06T18:54:37.875Z,37.89
2018-11-06T18:57:10.062Z,39.45
2018-11-06T18:59:42.195Z,38.78
2018-11-06T19:02:14.248Z,38.87
2018-11-06T19:04:46.047Z,38.62
2018-11-06T19:07:17.943Z,38.39
2018-11-06T19:09:50.847Z,38.62
2018-11-06T19:12:22.803Z,39.18
2018-11-06T19:14:55.219Z,37.73
2018-11-06T19:17:27.366Z,37.56
2018-11-06T19:19:59.512Z,37.53
2018-11-06T19:22:31.465Z,38.23
2018-11-06T19:25:03.453Z,37.45
2018-11-06T19:27:35.465Z,37.99
2018-11-06T19:30:09.013Z,38.65
2018-11-06T19:32:41.856Z,39.01
2018-11-06T19:35:14.209Z,38.66
2018-11-06T19:37:46.380Z,38.73
2018-11-06T19:40:19.363Z,38.51
2018-11-06T19:42:51.508Z,39.24
2018-11-06T19:45:23.668Z,39.09
2018-11-06T19:47:55.867Z,39.04
2018-11-06T19:50:27.742Z,38.40
2018-11-06T19:52:59.958Z,39.11
2018-11-06T19:55:31.894Z,38.37
2018-11-06T19:58:03.797Z,38.66
2018-11-06T20:00:35.935Z,38.89
2018-11-06T20:03:08.278Z,39.12
2018-11-06T20:05:40.151Z,38.83
2018-11-06T20:08:12.140Z,39.36
2018-11-06T20:10:44.589Z,38.47
2018-11-06T20:13:16.639Z,38.98
2018-11-06T20:15:48.780Z,38.29
2018-11-06T20:18:21.034Z,38.89
2018-11-06T20:20:53.027Z,39.38
2018-11-06T20:23:26.126Z,39.24
2018-11-06T20:25:58.747Z,39.47
2018-11-06T20:28:30.948Z,39.88
2018-11-06T20:31:02.979Z,40.12
2018-11-06T20:33:35.717Z,39.43
2018-11-06T20:36:07.721Z,39.91
2018-11-06T20:38:39.836Z,40.26
2018-11-06T20:41:11.974Z,39.83
2018-11-06T20:43:44.184Z,39.89
2018-11-06T20:46:16.047Z,39.53
2018-11-06T20:48:48.415Z,39.80
2018-11-06T20:51:20.663Z,40.39
2018-11-06T20:53:52.926Z,40.82
2018-11-06T20:56:24.585Z,39.80
2018-11-06T20:58:56.838Z,40.09
2018-11-06T21:01:28.486Z,40.40
2018-11-06T21:04:00.929Z,40.48
2018-11-06T21:06:35.206Z,39.96
2018-11-06T21:09:09.563Z,40.51
2018-11-06T21:11:42.236Z,40.81
2018-11-06T21:14:14.512Z,40.78
2018-11-06T21:16:46.419Z,40.51
2018-11-06T21:19:18.337Z,40.34
2018-11-06T21:21:50.193Z,39.65
2018-11-06T21:24:22.495Z,40.71
2018-11-06T21:26:54.567Z,40.92
2018-11-06T21:29:26.621Z,39.96
2018-11-06T21:31:58.609Z,40.05
2018-11-06T21:34:31.790Z,40.26
2018-11-06T21:37:03.933Z,40.14
2018-11-06T21:39:36.109Z,40.16
2018-11-06T21:42:08.159Z,40.15
2018-11-06T21:44:40.467Z,40.00
2018-11-06T21:47:12.514Z,39.39
2018-11-06T21:49:44.715Z,39.94
2018-11-06T21:52:16.839Z,39.07
2018-11-06T21:54:48.920Z,39.15
2018-11-06T21:57:20.985Z,39.41
2018-11-06T21:59:53.285Z,38.99
2018-11-06T22:02:25.316Z,38.78
2018-11-06T22:04:57.471Z,39.67
2018-11-06T22:07:29.469Z,38.45
2018-11-06T22:10:01.887Z,38.91
2018-11-06T22:12:34.178Z,38.14
2018-11-06T22:15:07.169Z,38.56
2018-11-06T22:17:39.384Z,38.35
2018-11-06T22:20:13.305Z,38.26
2018-11-06T22:22:45.826Z,37.78
2018-11-06T22:25:17.942Z,36.78
2018-11-06T22:27:49.809Z,37.54
2018-11-06T22:30:21.887Z,38.00
2018-11-06T22:32:53.814Z,37.69
2018-11-06T22:35:25.772Z,37.64
2018-11-06T22:37:57.685Z,37.66
2018-11-06T22:40:29.943Z,36.88
2018-11-06T22:43:02.334Z,37.44
2018-11-06T22:45:34.477Z,38.03
2018-11-06T22:48:06.577Z,37.82
2018-11-06T22:50:38.828Z,38.25
2018-11-06T22:53:10.985Z,38.16
2018-11-06T22:55:43.153Z,38.53
2018-11-06T22:58:14.974Z,38.01
2018-11-06T23:00:51.979Z,38.14
2018-11-06T23:03:23.971Z,38.42
2018-11-06T23:05:56.235Z,38.33
2018-11-06T23:08:29.167Z,37.48
2018-11-06T23:11:01.216Z,37.92
2018-11-06T23:13:33.741Z,37.47
2018-11-06T23:16:06.442Z,37.22
2018-11-06T23:18:38.999Z,37.26
2018-11-06T23:21:11.142Z,37.22
2018-11-06T23:23:42.945Z,37.23
2018-11-06T23:26:14.954Z,36.90
2018-11-06T23:28:47.044Z,37.27
2018-11-06T23:31:19.271Z,37.72
2018-11-06T23:33:51.337Z,36.74
2018-11-06T23:36:23.493Z,37.14
2018-11-06T23:38:55.636Z,36.65
2018-11-06T23:41:27.675Z,36.94
2018-11-06T23:44:00.129Z,37.05
2018-11-06T23:46:32.266Z,36.95
2018-11-06T23:49:04.450Z,37.12
2018-11-06T23:51:36.407Z,36.54
2018-11-06T23:54:08.587Z,37.44
2018-11-06T23:56:40.624Z,37.29
2018-11-06T23:59:12.606Z,37.11
